TimeCDT,TemperatureF,Dew PointF,Humidity,Sea Level PressureIn,VisibilityMPH,Wind Direction,Wind SpeedMPH,Gust SpeedMPH,PrecipitationIn,Events,Conditions,WindDirDegrees,DateUTC
12:53 AM,81.0,73.9,79,29.96,10.0,SE,15.0,23.0,N/A,,Clear,140,2013-07-30 05:53:00
1:53 AM,80.1,73.9,81,29.98,10.0,SE,11.5,-,N/A,,Clear,140,2013-07-30 06:53:00
2:53 AM,79.0,73.9,84,30.00,10.0,SE,9.2,-,N/A,,Clear,140,2013-07-30 07:53:00
3:53 AM,79.0,73.9,84,29.99,10.0,SE,9.2,-,N/A,,Clear,140,2013-07-30 08:53:00
4:53 AM,78.1,73.0,84,30.00,10.0,SE,6.9,-,N/A,,Clear,140,2013-07-30 09:53:00
5:53 AM,78.1,73.0,84,30.01,10.0,SE,8.1,-,N/A,,Clear,140,2013-07-30 10:53:00
6:53 AM,77.0,73.0,88,30.02,10.0,SE,8.1,-,N/A,,Clear,130,2013-07-30 11:53:00
7:53 AM,78.1,73.0,84,30.03,9.0,ESE,8.1,-,N/A,,Clear,120,2013-07-30 12:53:00
8:53 AM,82.0,73.0,74,30.04,10.0,SSE,11.5,17.3,N/A,,Clear,150,2013-07-30 13:53:00
9:53 AM,84.9,73.0,67,30.04,10.0,SSE,13.8,20.7,N/A,,Clear,150,2013-07-30 14:53:00
10:53 AM,90.0,72.0,55,30.04,10.0,South,11.5,21.9,N/A,,Clear,170,2013-07-30 15:53:00
11:53 AM,91.9,70.0,48,30.04,10.0,South,9.2,17.3,N/A,,Clear,190,2013-07-30 16:53:00
12:53 PM,96.1,68.0,40,30.02,10.0,South,11.5,18.4,N/A,,Clear,170,2013-07-30 17:53:00
1:53 PM,99.0,66.0,34,29.99,10.0,SE,12.7,20.7,N/A,,Clear,140,2013-07-30 18:53:00
2:53 PM,102.0,64.0,29,29.95,10.0,SE,13.8,24.2,N/A,,Clear,140,2013-07-30 19:53:00
3:53 PM,104.0,60.1,24,29.93,10.0,SE,12.7,21.9,N/A,,Clear,140,2013-07-30 20:53:00
4:53 PM,105.1,57.0,20,29.91,10.0,South,10.4,-,N/A,,Clear,190,2013-07-30 21:53:00
5:53 PM,104.0,55.0,20,29.90,10.0,SE,17.3,23.0,N/A,,Clear,140,2013-07-30 22:53:00
6:53 PM,102.9,55.0,20,29.89,10.0,SSE,12.7,19.6,N/A,,Clear,150,2013-07-30 23:53:00
7:53 PM,100.0,57.9,25,29.90,10.0,ESE,10.4,-,N/A,,Clear,120,2013-07-31 00:53:00
8:53 PM,93.0,71.1,49,29.93,10.0,SE,20.7,27.6,N/A,,Clear,140,2013-07-31 01:53:00
9:53 PM,89.1,72.0,57,29.95,10.0,SE,18.4,25.3,N/A,,Clear,140,2013-07-31 02:53:00
10:53 PM,86.0,71.1,61,29.99,10.0,ESE,12.7,-,N/A,,Clear,120,2013-07-31 03:53:00
11:53 PM,84.0,71.1,65,30.00,10.0,SE,10.4,-,N/A,,Clear,130,2013-07-31 04:53:00